Data for 02/11/2014

Time Sea-Level Adjusted Pressure Absolute Pressure Temperature Relative Humidity Dew Point   
(mb) (inHg) (mb) (inHg) (C) (F) (%) (C) (F)
00:05 1016 30 845 24.95 2.5 36.5 46 -7.9 17.8
00:10 1016 30 845 24.95 2.4 36.3 48 -7.6 18.2
00:15 1016 30 845 24.95 2.4 36.4 46 -8 17.6
00:20 1016 30 845 24.95 2.6 36.6 45 -8.2 17.2
00:25 1016 30 845 24.95 2.5 36.4 46 -8 17.5
00:30 1016 30 845 24.95 2.5 36.5 45 -8.4 16.9
00:35 1016 30 845 24.95 2.5 36.5 46 -8 17.6
00:40 1016 30 845 24.95 2.2 36 47 -7.9 17.8
00:45 1016 30 845 24.95 1.9 35.5 49 -7.6 18.3
00:50 1016 30 845 24.95 1.8 35.3 48 -8 17.5
00:55 1016 30 845 24.95 2.1 35.8 47 -8 17.7
01:00 1016 30 845 24.95 2.1 35.8 47 -8 17.5
01:05 1016 30 845 24.95 2.5 36.4 45 -8.4 16.9
01:10 1016 30 845 24.95 2.8 37.1 45 -7.9 17.8
01:15 1016 30 845 24.95 2.8 37.1 45 -8 17.5
01:20 1016 30 845 24.95 2.9 37.3 44 -8.3 17.1
01:25 1016 30 845 24.95 2.9 37.2 44 -8.3 17.1
01:30 1016 30 845 24.95 2.8 37.1 45 -8 17.7
01:35 1016 30 845 24.95 2.8 37 46 -7.8 18
01:40 1016 30 845 24.95 2.8 37 46 -7.9 17.9
01:45 1016 30 845 24.95 2.7 36.8 46 -7.9 17.7
01:50 1016 30 845 24.95 2.7 36.8 46 -7.7 18.1
01:55 1016 30 845 24.95 2.6 36.7 46 -8 17.7
02:00 1016 30 845 24.95 2.6 36.8 46 -7.8 18
02:05 1016 30 845 24.95 2.6 36.6 47 -7.7 18.2
02:10 1016 30 845 24.95 2.5 36.5 48 -7.4 18.7
02:15 1015 29.97 845 24.95 2.6 36.6 46 -7.9 17.8
02:20 1015 29.97 845 24.95 2.6 36.7 48 -7.4 18.6
02:25 1015 29.97 845 24.95 2.5 36.5 46 -8.1 17.5
02:30 1015 29.97 845 24.95 2.7 36.8 45 -8.1 17.3
02:35 1015 29.97 845 24.95 2.8 37 42 -8.8 16.2
02:40 1015 29.97 845 24.95 2.9 37.2 43 -8.4 16.8
02:45 1015 29.97 845 24.95 2.8 37.1 45 -7.9 17.8
02:50 1015 29.97 845 24.95 2.5 36.6 44 -8.6 16.5
02:55 1015 29.97 845 24.95 2.6 36.8 43 -8.7 16.3
03:00 1015 29.97 845 24.95 2.5 36.6 44 -8.6 16.6
03:05 1015 29.97 845 24.95 2.4 36.4 44 -8.7 16.3
03:10 1015 29.97 845 24.95 2.4 36.3 43 -8.9 16
03:15 1015 29.97 844 24.92 2.5 36.5 42 -9.2 15.4
03:20 1015 29.97 844 24.92 2.9 37.2 41 -9.2 15.4
03:25 1015 29.97 844 24.92 3.1 37.6 42 -8.6 16.4
03:30 1015 29.97 844 24.92 3.1 37.5 42 -8.7 16.3
03:35 1015 29.97 844 24.92 3.1 37.5 42 -8.6 16.4
03:40 1015 29.97 844 24.92 3 37.4 43 -8.5 16.6
03:45 1015 29.97 844 24.92 3 37.4 42 -8.6 16.6
03:50 1015 29.97 844 24.92 2.9 37.2 46 -7.8 18
03:55 1015 29.97 844 24.92 2.8 37.1 43 -8.6 16.5
04:00 1015 29.97 844 24.92 2.8 37.1 46 -7.6 18.4
04:05 1015 29.97 844 24.92 2.6 36.7 45 -8.2 17.2
04:10 1015 29.97 844 24.92 2.7 36.8 45 -8.2 17.3
04:15 1015 29.97 844 24.92 2.9 37.2 44 -8 17.5
04:20 1015 29.97 844 24.92 2.9 37.2 44 -8.3 17
04:25 1015 29.97 844 24.92 2.9 37.2 44 -8.1 17.4
04:30 1014 29.94 844 24.92 2.8 37.1 43 -8.6 16.5
04:35 1014 29.94 844 24.92 3 37.5 43 -8.3 17.1
04:40 1015 29.97 844 24.92 3 37.4 43 -8.4 16.8
04:45 1014 29.94 844 24.92 3 37.4 43 -8.4 17
04:50 1014 29.94 844 24.92 2.9 37.2 44 -8.1 17.5
04:55 1014 29.94 843 24.89 2.7 36.9 46 -7.8 17.9
05:00 1014 29.94 844 24.92 2.6 36.6 44 -8.4 16.9
05:05 1014 29.94 844 24.92 2.7 36.9 44 -8.3 17.1
05:10 1014 29.94 844 24.92 2.9 37.2 45 -8 17.7
05:15 1015 29.97 844 24.92 2.7 36.8 46 -7.7 18.1
05:20 1014 29.94 844 24.92 2.7 36.9 48 -7.2 19.1
05:25 1014 29.94 844 24.92 2.5 36.5 50 -6.9 19.6
05:30 1014 29.94 843 24.89 2.2 36 52 -6.7 19.9
05:35 1014 29.94 843 24.89 2.2 36 52 -6.7 19.9
05:40 1014 29.94 843 24.89 2 35.6 52 -6.8 19.8
05:45 1014 29.94 843 24.89 2.1 35.8 49 -7.6 18.3
05:50 1014 29.94 843 24.89 2.4 36.3 49 -7.3 18.8
05:55 1014 29.94 843 24.89 2.3 36.1 48 -7.7 18.1
06:00 1014 29.94 843 24.89 2.5 36.5 46 -8 17.6
06:05 1014 29.94 843 24.89 2.7 36.8 46 -7.7 18.1
06:10 1014 29.94 843 24.89 2.5 36.6 47 -7.8 18
06:15 1014 29.94 843 24.89 2.5 36.5 46 -7.9 17.7
06:20 1014 29.94 843 24.89 2.5 36.4 47 -7.8 17.9
06:25 1014 29.94 843 24.89 2.3 36.2 47 -7.9 17.8
06:30 1014 29.94 843 24.89 2.4 36.3 47 -7.8 18
06:35 1014 29.94 843 24.89 2.4 36.4 46 -8.1 17.5
06:40 1014 29.94 843 24.89 2.6 36.7 45 -8.1 17.4
06:45 1014 29.94 843 24.89 2.6 36.7 46 -8 17.6
06:50 1014 29.94 843 24.89 2.5 36.5 47 -7.8 17.9
06:55 1014 29.94 843 24.89 2.4 36.4 47 -7.7 18.2
07:00 1014 29.94 843 24.89 2.4 36.4 47 -7.8 17.9
07:05 1014 29.94 843 24.89 2.6 36.6 47 -7.6 18.3
07:10 1013 29.91 843 24.89 2.5 36.5 47 -7.8 18
07:15 1013 29.91 843 24.89 2.6 36.7 46 -7.8 18
07:20 1013 29.91 843 24.89 2.8 37 46 -7.6 18.2
07:25 1013 29.91 842 24.86 2.8 37.1 47 -7.5 18.5
07:30 1013 29.91 843 24.89 2.8 37 46 -7.6 18.3
07:35 1013 29.91 842 24.86 2.8 37 45 -7.9 17.7
07:40 1013 29.91 842 24.86 2.9 37.2 46 -7.6 18.4
07:45 1013 29.91 842 24.86 2.8 37.1 46 -7.8 18
07:50 1013 29.91 842 24.86 2.8 37 47 -7.3 18.8
07:55 1013 29.91 842 24.86 2.7 36.8 46 -7.8 17.9
08:00 1013 29.91 842 24.86 2.9 37.2 44 -8.1 17.4
08:05 1013 29.91 842 24.86 2.9 37.2 46 -7.6 18.3
08:10 1013 29.91 842 24.86 2.7 36.9 47 -7.6 18.4
08:15 1013 29.91 842 24.86 2.6 36.7 47 -7.7 18.2
08:20 1013 29.91 842 24.86 2.6 36.7 43 -8.6 16.5
08:25 1013 29.91 842 24.86 3 37.4 44 -8.1 17.4
08:30 1013 29.91 842 24.86 2.9 37.2 45 -7.9 17.8
08:35 1012 29.88 842 24.86 2.6 36.7 45 -8.2 17.2
08:40 1012 29.88 841 24.83 2.7 36.9 42 -8.8 16.2
08:45 1012 29.88 841 24.83 2.9 37.2 42 -8.8 16.1
08:50 1012 29.88 841 24.83 2.9 37.3 42 -8.8 16.2
08:55 1012 29.88 841 24.83 3 37.3 42 -8.7 16.4
09:00 1012 29.88 841 24.83 2.9 37.3 43 -8.5 16.6
09:05 1012 29.88 841 24.83 2.9 37.2 44 -8.3 17
09:10 1012 29.88 841 24.83 2.9 37.1 44 -8.1 17.4
09:15 1012 29.88 842 24.86 2.9 37.3 44 -8.2 17.2
09:20 1012 29.88 842 24.86 3 37.4 43 -8.4 16.8
09:25 1012 29.88 841 24.83 3.1 37.5 42 -8.7 16.3
09:30 1012 29.88 841 24.83 3.3 38 41 -8.6 16.6
09:35 1012 29.88 841 24.83 3.2 37.8 44 -7.9 17.7
09:40 1012 29.88 841 24.83 2.9 37.1 44 -8.3 17.1
09:45 1012 29.88 841 24.83 2.9 37.3 45 -8 17.6
09:50 1012 29.88 841 24.83 3 37.5 44 -8.1 17.4
09:55 1012 29.88 841 24.83 3.2 37.8 43 -8.3 17.1
10:00 1012 29.88 841 24.83 3.4 38.1 44 -7.8 18
10:05 1012 29.88 841 24.83 3.5 38.2 41 -8.5 16.7
10:10 1012 29.88 841 24.83 3.5 38.3 43 -8 17.6
10:15 1012 29.88 841 24.83 3.6 38.4 40 -8.7 16.4
10:20 1012 29.88 841 24.83 3.7 38.7 43 -7.8 18
10:25 1012 29.88 841 24.83 3.5 38.3 42 -8.1 17.4
10:30 1012 29.88 841 24.83 3.6 38.5 42 -8 17.5
10:35 1012 29.88 841 24.83 3.6 38.6 42 -8.2 17.3
10:40 1012 29.88 842 24.86 3.7 38.7 40 -8.6 16.6
10:45 1012 29.88 841 24.83 3.8 38.8 41 -8.3 17.1
10:50 1012 29.88 841 24.83 3.7 38.7 42 -7.9 17.7
10:55 1012 29.88 842 24.86 3.8 38.8 43 -7.8 17.9
11:00 1012 29.88 842 24.86 3.9 39 43 -7.5 18.4
11:05 1012 29.88 841 24.83 3.8 38.9 45 -7.1 19.2
11:10 1012 29.88 841 24.83 3.8 38.9 43 -7.6 18.3
11:15 1012 29.88 841 24.83 3.9 39 45 -7.1 19.2
11:20 1012 29.88 841 24.83 3.8 38.9 45 -7.1 19.1
11:25 1012 29.88 841 24.83 3.8 38.8 46 -6.9 19.6
11:30 1012 29.88 841 24.83 3.7 38.7 46 -6.8 19.7
11:35 1012 29.88 841 24.83 3.8 38.8 46 -6.9 19.6
11:40 1012 29.88 841 24.83 3.8 38.9 46 -6.8 19.8
11:45 1012 29.88 841 24.83 3.9 39 45 -6.9 19.5
11:50 1012 29.88 841 24.83 3.8 38.9 46 -6.8 19.8
11:55 1012 29.88 841 24.83 3.8 38.8 47 -6.5 20.2
12:00 1012 29.88 841 24.83 3.7 38.7 47 -6.5 20.4
12:05 1012 29.88 841 24.83 3.8 38.8 47 -6.6 20.1
12:10 1012 29.88 841 24.83 3.9 38.9 46 -6.7 19.9
12:15 1012 29.88 841 24.83 4 39.1 47 -6.5 20.4
12:20 1012 29.88 841 24.83 3.9 39 47 -6.3 20.6
12:25 1012 29.88 841 24.83 4.1 39.3 46 -6.6 20.2
12:30 1012 29.88 841 24.83 4.1 39.4 45 -6.7 20
12:35 1011 29.85 841 24.83 4 39.3 46 -6.7 20
12:40 1012 29.88 841 24.83 4 39.1 46 -6.5 20.3
12:45 1011 29.85 841 24.83 3.9 39.1 48 -6.2 20.8
12:50 1012 29.88 841 24.83 4 39.3 48 -5.9 21.4
12:55 1012 29.88 841 24.83 4.1 39.4 47 -6.3 20.6
13:00 1011 29.85 841 24.83 4.1 39.4 47 -6.1 21
13:05 1011 29.85 841 24.83 4.1 39.4 46 -6.5 20.4
13:10 1011 29.85 841 24.83 4.3 39.8 46 -6.2 20.9
13:15 1011 29.85 841 24.83 4.3 39.8 46 -6.3 20.7
13:20 1011 29.85 841 24.83 4.4 39.9 45 -6.7 20
13:25 1012 29.88 841 24.83 4.4 40 45 -6.4 20.4
13:30 1012 29.88 841 24.83 4.4 40 47 -6 21.3
13:35 1012 29.88 841 24.83 4.3 39.7 48 -5.7 21.8
13:40 1012 29.88 841 24.83 4.1 39.4 45 -6.7 19.9
13:45 1012 29.88 841 24.83 4.1 39.4 47 -6.3 20.7
13:50 1012 29.88 841 24.83 4 39.2 46 -6.5 20.3
13:55 1013 29.91 842 24.86 3.6 38.4 69 -1.5 29.3
14:00 1013 29.91 842 24.86 0.5 32.9 84 -1.9 28.7
14:05 1014 29.94 843 24.89 -1 30.2 89 -2.6 27.3
14:10 1014 29.94 843 24.89 -1.5 29.2 92 -2.7 27.1
14:15 1014 29.94 843 24.89 -1.7 28.9 93 -2.7 27.1
14:20 1014 29.94 843 24.89 -1.8 28.8 93 -2.7 27.2
14:25 1014 29.94 843 24.89 -1.7 29 94 -2.6 27.4
14:30 1014 29.94 843 24.89 -1.5 29.2 93 -2.5 27.6
14:35 1014 29.94 843 24.89 -1.2 29.8 92 -2.4 27.8
14:40 1014 29.94 843 24.89 -0.9 30.4 91 -2.2 28.1
14:45 1014 29.94 844 24.92 -0.6 30.9 89 -2.2 28
14:50 1014 29.94 844 24.92 -0.3 31.4 86 -2.4 27.8
14:55 1015 29.97 844 24.92 -0.1 31.8 85 -2.3 27.8
15:00 1015 29.97 844 24.92 0 32 84 -2.4 27.7
15:05 1015 29.97 844 24.92 0 32.1 84 -2.3 27.9
15:10 1015 29.97 844 24.92 0.3 32.6 83 -2.2 28
15:15 1015 29.97 844 24.92 0.9 33.6 81 -2.1 28.2
15:20 1015 29.97 844 24.92 0.7 33.3 81 -2.2 28.1
15:25 1015 29.97 844 24.92 1 33.7 79 -2.3 27.9
15:30 1015 29.97 844 24.92 1.2 34.2 78 -2.2 28
15:35 1015 29.97 844 24.92 0.8 33.5 81 -2.1 28.2
15:40 1015 29.97 844 24.92 0.4 32.7 80 -2.6 27.3
15:45 1015 29.97 844 24.92 0.5 32.9 79 -2.7 27.2
15:50 1015 29.97 844 24.92 0.6 33 78 -2.8 27
15:55 1015 29.97 844 24.92 0.7 33.3 75 -3.3 26.1
16:00 1015 29.97 844 24.92 1 33.8 65 -4.9 23.2
16:05 1015 29.97 844 24.92 1.5 34.7 56 -6.3 20.6
16:10 1015 29.97 845 24.95 2.1 35.8 57 -5.5 22.1
16:15 1016 30 845 24.95 2.2 36 55 -5.8 21.6
16:20 1016 30 845 24.95 1.8 35.3 58 -5.7 21.8
16:25 1016 30 845 24.95 1.7 35 58 -5.7 21.8
16:30 1016 30 845 24.95 1.7 35 56 -6.1 21.1
16:35 1016 30 845 24.95 1.5 34.6 55 -6.7 19.9
16:40 1016 30 845 24.95 1.6 34.8 51 -7.5 18.4
16:45 1016 30 845 24.95 1.9 35.4 50 -7.5 18.6
16:50 1016 30 845 24.95 2 35.5 50 -7.5 18.6
16:55 1016 30 845 24.95 2.1 35.8 50 -7.2 19.1
17:00 1016 30 845 24.95 2.2 36 49 -7.3 18.9
17:05 1016 30 845 24.95 2.2 36 48 -7.7 18.1
17:10 1016 30 846 24.98 2.2 35.9 46 -8.2 17.2
17:15 1016 30 846 24.98 2.1 35.8 36 -11.6 11.1
17:20 1016 30 846 24.98 2.1 35.9 32 -12.7 9.1
17:25 1017 30.03 846 24.98 2.1 35.7 34 -12.1 10.2
17:30 1017 30.03 846 24.98 2.1 35.7 35 -11.9 10.5
17:35 1017 30.03 846 24.98 2.1 35.7 35 -11.9 10.6
17:40 1017 30.03 846 24.98 1.9 35.4 34 -12.5 9.5
17:45 1017 30.03 846 24.98 1.7 35.1 33 -12.9 8.8
17:50 1017 30.03 846 24.98 1.2 34.2 37 -11.9 10.6
17:55 1017 30.03 846 24.98 0.7 33.3 39 -11.6 11.1
18:00 1017 30.03 846 24.98 0.4 32.8 41 -11.3 11.7
18:05 1017 30.03 847 25.01 0.3 32.6 42 -11.1 12.1
18:10 1017 30.03 847 25.01 0.2 32.3 42 -11.2 11.9
18:15 1017 30.03 847 25.01 -0 32 43 -11.1 12.1
18:20 1017 30.03 847 25.01 0 32 42 -11.4 11.5
18:25 1018 30.06 847 25.01 -0.2 31.6 44 -10.9 12.3
18:30 1018 30.06 847 25.01 -0.8 30.6 45 -11.2 11.9
18:35 1018 30.06 847 25.01 -1.3 29.7 45 -11.8 10.8
18:40 1018 30.06 847 25.01 -1.3 29.6 44 -12 10.5
18:45 1018 30.06 847 25.01 -1.6 29.1 46 -11.8 10.7
18:50 1018 30.06 847 25.01 -1.6 29.2 44 -12.2 10.1
18:55 1018 30.06 847 25.01 -1.5 29.4 43 -12.6 9.3
19:00 1018 30.06 847 25.01 -1.2 29.9 41 -12.7 9.2
19:05 1018 30.06 847 25.01 -0.9 30.3 40 -13 8.6
19:10 1018 30.06 847 25.01 -0.8 30.5 42 -12.2 10
19:15 1018 30.06 847 25.01 -1.2 29.9 43 -12.3 9.9
19:20 1018 30.06 848 25.04 -2 28.3 45 -12.6 9.4
19:25 1018 30.06 848 25.04 -2.2 28 41 -13.8 7.2
19:30 1018 30.06 848 25.04 -1.9 28.6 41 -13.6 7.6
19:35 1018 30.06 848 25.04 -1.7 28.9 41 -13.2 8.2
19:40 1018 30.06 848 25.04 -1.8 28.7 40 -13.9 7.1
19:45 1018 30.06 848 25.04 -1.6 29 38 -14.1 6.7
19:50 1018 30.06 848 25.04 -1.5 29.3 39 -13.8 7.2
19:55 1019 30.09 848 25.04 -1.5 29.2 38 -14 6.8
20:00 1019 30.09 848 25.04 -1.4 29.5 37 -14.2 6.4
20:05 1019 30.09 848 25.04 -1.2 29.9 37 -14.2 6.4
20:10 1019 30.09 848 25.04 -1 30.2 38 -13.7 7.4
20:15 1019 30.09 848 25.04 -1.1 30 37 -13.9 6.9
20:20 1019 30.09 848 25.04 -1.1 30 37 -14.1 6.5
20:25 1018 30.06 848 25.04 -1.2 29.9 37 -14.2 6.4
20:30 1018 30.06 848 25.04 -1.3 29.6 38 -14 6.8
20:35 1018 30.06 848 25.04 -1.5 29.3 38 -14.1 6.6
20:40 1018 30.06 848 25.04 -1.5 29.2 39 -13.7 7.3
20:45 1018 30.06 848 25.04 -2.1 28.1 42 -13.6 7.6
20:50 1019 30.09 848 25.04 -2.2 28 40 -14 6.8
20:55 1019 30.09 848 25.04 -2.3 27.9 42 -13.5 7.6
21:00 1019 30.09 848 25.04 -2.3 27.8 41 -14 6.9
21:05 1018 30.06 848 25.04 -2.5 27.5 42 -13.7 7.3
21:10 1018 30.06 848 25.04 -2.8 27 42 -14 6.8
21:15 1018 30.06 848 25.04 -2.9 26.7 42 -14.2 6.4
21:20 1018 30.06 848 25.04 -2.8 26.9 43 -13.7 7.3
21:25 1018 30.06 848 25.04 -3.4 25.8 45 -13.8 7.2
21:30 1019 30.09 848 25.04 -3.6 25.6 45 -13.8 7.1
21:35 1019 30.09 848 25.04 -3.6 25.5 45 -14 6.8
21:40 1019 30.09 848 25.04 -3.4 25.8 44 -13.9 7
21:45 1018 30.06 848 25.04 -3.6 25.5 46 -13.7 7.4
21:50 1018 30.06 848 25.04 -3.9 24.9 47 -13.6 7.5
21:55 1018 30.06 848 25.04 -5 23 51 -13.7 7.3
22:00 1019 30.09 848 25.04 -5.3 22.4 51 -13.8 7.1
22:05 1019 30.09 848 25.04 -5.1 22.8 51 -13.7 7.3
22:10 1019 30.09 848 25.04 -5.3 22.5 54 -13.2 8.2
22:15 1019 30.09 848 25.04 -5.2 22.6 52 -13.6 7.5
22:20 1019 30.09 848 25.04 -5 22.9 54 -13 8.6
22:25 1019 30.09 848 25.04 -5.1 22.8 54 -13 8.6
22:30 1019 30.09 848 25.04 -4.5 24 51 -13.1 8.5
22:35 1019 30.09 848 25.04 -4.3 24.2 53 -12.7 9.2
22:40 1019 30.09 848 25.04 -4.5 24 51 -13.1 8.5
22:45 1019 30.09 848 25.04 -4.7 23.6 54 -12.7 9.1
22:50 1018 30.06 848 25.04 -5.1 22.8 56 -12.6 9.4
22:55 1018 30.06 848 25.04 -5.1 22.8 55 -12.9 8.8
23:00 1018 30.06 848 25.04 -5.2 22.6 56 -12.8 9
23:05 1018 30.06 847 25.01 -5.6 22 57 -12.9 8.8
23:10 1018 30.06 847 25.01 -5.6 22 57 -12.8 9
23:15 1018 30.06 848 25.04 -5.6 22 58 -12.6 9.3
23:20 1018 30.06 848 25.04 -5.4 22.3 57 -12.6 9.4
23:25 1018 30.06 848 25.04 -4.9 23.1 55 -12.7 9.1
23:30 1018 30.06 847 25.01 -5.2 22.6 57 -12.4 9.6
23:35 1018 30.06 847 25.01 -5.4 22.3 57 -12.7 9.2
23:40 1018 30.06 847 25.01 -5.4 22.3 56 -12.8 9
23:45 1018 30.06 847 25.01 -5.1 22.7 57 -12.3 9.9
23:50 1018 30.06 847 25.01 -5 23.1 56 -12.4 9.7
23:55 1018 30.06 847 25.01 -5 22.9 57 -12.3 9.8
24:00 1018 30.06 847 25.01 -5.4 22.3 56 -12.8 9